Time;durP1;ratioP1;P1;durP2;ratioP2;P2;SDS_P1;SDS_P2;PMS_P1;PMS_P2;Temp;Humidity;BMP_temperature;BMP_pressure;BME280_temperature;BME280_humidity;BME280_pressure;Samples;Min_cycle;Max_cycle;Signal;HPM_P1;HPM_P2
2022/08/13 00:02:10;;;;;;;1.80;1.30;;;14.80;99.90;;;;;;4973339;28;20184;-71
2022/08/13 00:04:43;;;;;;;2.03;1.10;;;14.90;99.90;;;;;;4972984;28;20554;-71
2022/08/13 00:07:11;;;;;;;3.03;1.50;;;15.30;99.90;;;;;;4955806;28;20278;-71
2022/08/13 00:09:42;;;;;;;1.70;1.50;;;15.40;99.90;;;;;;4972722;28;20215;-71
2022/08/13 00:15:11;;;;;;;1.60;1.20;;;15.50;99.90;;;;;;4962840;28;20190;-71
2022/08/13 00:17:39;;;;;;;1.30;1.07;;;15.60;99.90;;;;;;4976068;28;21030;-70
2022/08/13 00:20:08;;;;;;;1.43;1.17;;;15.70;99.90;;;;;;4955613;28;20199;-72
2022/08/13 00:22:36;;;;;;;1.70;1.60;;;16.00;99.90;;;;;;4972924;28;20180;-71
2022/08/13 00:25:07;;;;;;;3.23;1.47;;;16.20;99.90;;;;;;4972992;28;20183;-71
2022/08/13 00:27:35;;;;;;;1.53;1.27;;;16.40;99.90;;;;;;4973024;28;20703;-72
2022/08/13 00:30:07;;;;;;;5.17;1.40;;;16.70;99.90;;;;;;4973045;28;20318;-69
2022/08/13 00:32:34;;;;;;;2.73;1.80;;;17.50;99.90;;;;;;4955724;28;20183;-72
2022/08/13 00:35:03;;;;;;;4.07;1.70;;;18.30;99.90;;;;;;4966612;28;20188;-71
2022/08/13 00:37:31;;;;;;;3.27;1.40;;;19.40;99.90;;;;;;4967984;28;20549;-71
2022/08/13 00:39:58;;;;;;;1.70;0.80;;;19.60;99.90;;;;;;4972625;28;20184;-72
2022/08/13 00:42:27;;;;;;;1.17;0.97;;;19.90;99.90;;;;;;4972576;28;20193;-71
2022/08/13 00:44:55;;;;;;;1.43;1.00;;;19.40;99.90;;;;;;4972699;28;20231;-71
2022/08/13 00:50:14;;;;;;;1.73;0.70;;;20.20;99.90;;;;;;4972846;28;20270;-72
2022/08/13 00:52:42;;;;;;;0.63;0.60;;;20.00;99.90;;;;;;4972245;28;20874;-70
2022/08/13 00:55:17;;;;;;;1.60;0.60;;;19.30;99.90;;;;;;4972211;28;20194;-70
2022/08/13 00:57:47;;;;;;;0.40;0.40;;;18.70;99.90;;;;;;4971828;28;20270;-70
2022/08/13 01:00:18;;;;;;;0.40;0.40;;;19.20;99.90;;;;;;4972484;28;20287;-71
2022/08/13 01:02:52;;;;;;;1.43;0.60;;;20.20;99.90;;;;;;4972388;28;20192;-70
2022/08/13 01:05:24;;;;;;;0.83;0.50;;;20.70;99.90;;;;;;4972470;28;20687;-71
2022/08/13 01:07:53;;;;;;;2.30;0.70;;;21.10;99.90;;;;;;4972066;28;20245;-72
2022/08/13 01:10:21;;;;;;;2.33;0.93;;;21.60;99.90;;;;;;4972151;28;20284;-70
2022/08/13 01:12:51;;;;;;;0.83;0.63;;;21.70;99.90;;;;;;4972073;28;20197;-71
2022/08/13 01:15:21;;;;;;;1.00;0.57;;;21.60;99.90;;;;;;4955388;28;20217;-71
2022/08/13 01:17:53;;;;;;;0.90;0.43;;;21.70;99.90;;;;;;4954177;28;20253;-71
2022/08/13 01:20:25;;;;;;;0.40;0.40;;;21.80;99.90;;;;;;4954955;28;20226;-72
2022/08/13 01:22:55;;;;;;;3.23;0.40;;;21.70;99.90;;;;;;4972261;28;20609;-71
2022/08/13 01:25:25;;;;;;;0.40;0.30;;;21.60;99.90;;;;;;4972459;28;20244;-72
2022/08/13 01:27:53;;;;;;;0.40;0.40;;;21.80;99.90;;;;;;4972260;28;20590;-71
2022/08/13 01:30:24;;;;;;;0.77;0.50;;;21.60;99.90;;;;;;4971893;28;20219;-71
2022/08/13 01:32:54;;;;;;;0.63;0.50;;;21.50;99.90;;;;;;4972087;28;20190;-72
2022/08/13 01:35:23;;;;;;;1.40;0.30;;;21.40;99.90;;;;;;4972015;28;20185;-72
2022/08/13 01:37:57;;;;;;;0.30;0.30;;;21.20;99.90;;;;;;4975640;28;20183;-71
2022/08/13 01:40:25;;;;;;;1.43;0.40;;;21.80;99.90;;;;;;4975897;28;20644;-72
2022/08/13 01:42:53;;;;;;;0.80;0.77;;;22.00;99.90;;;;;;4960068;28;20210;-72
2022/08/13 01:45:29;;;;;;;0.40;0.40;;;22.00;99.90;;;;;;4964291;28;20305;-73
2022/08/13 01:50:43;;;;;;;1.17;0.50;;;22.10;99.90;;;;;;4975880;28;20683;-73
2022/08/13 01:53:13;;;;;;;0.43;0.43;;;21.10;99.90;;;;;;4975606;28;20214;-71
2022/08/13 01:55:54;;;;;;;1.27;0.50;;;20.70;99.90;;;;;;4975800;28;20185;-73
2022/08/13 01:58:28;;;;;;;0.80;0.50;;;21.00;99.90;;;;;;4975306;28;20197;-74
2022/08/13 02:01:01;;;;;;;0.50;0.37;;;21.40;99.90;;;;;;4975540;28;20183;-72
2022/08/13 02:03:30;;;;;;;0.60;0.40;;;20.50;99.90;;;;;;4974938;28;20191;-72
2022/08/13 02:05:58;;;;;;;0.83;0.50;;;19.30;99.90;;;;;;4975613;28;20259;-72
2022/08/13 02:08:26;;;;;;;0.50;0.50;;;18.70;99.90;;;;;;4975309;28;20266;-72
2022/08/13 02:10:56;;;;;;;0.43;0.43;;;18.40;99.90;;;;;;4974793;28;20211;-72
2022/08/13 02:13:28;;;;;;;0.80;0.70;;;18.60;99.90;;;;;;4975357;28;20183;-73
2022/08/13 02:15:58;;;;;;;0.60;0.40;;;18.70;99.90;;;;;;4975331;28;20690;-73
2022/08/13 02:18:27;;;;;;;0.50;0.50;;;19.50;99.90;;;;;;4974695;28;20227;-72
2022/08/13 02:20:59;;;;;;;0.53;0.50;;;20.70;99.90;;;;;;4975241;28;20268;-72
2022/08/13 02:23:33;;;;;;;0.20;0.20;;;21.10;99.90;;;;;;4942058;28;20563;-74
2022/08/13 02:26:05;;;;;;;0.40;0.40;;;20.80;99.90;;;;;;4975309;28;20199;-72
2022/08/13 02:28:39;;;;;;;0.30;0.30;;;20.80;99.90;;;;;;4975284;28;20176;-71
2022/08/13 02:31:07;;;;;;;0.30;0.30;;;20.40;99.90;;;;;;4974751;28;20211;-73
2022/08/13 02:33:37;;;;;;;0.53;0.30;;;19.80;99.90;;;;;;4974825;28;20195;-72
2022/08/13 02:36:10;;;;;;;1.43;0.57;;;19.20;99.90;;;;;;4974456;28;20261;-72
2022/08/13 02:38:39;;;;;;;0.40;0.30;;;18.70;99.90;;;;;;4975028;28;20187;-73
2022/08/13 02:43:52;;;;;;;2.20;0.40;;;18.20;99.90;;;;;;4974801;28;20550;-73
2022/08/13 02:46:21;;;;;;;0.50;0.50;;;17.90;99.90;;;;;;4975002;28;20729;-73
2022/08/13 02:48:52;;;;;;;0.60;0.50;;;17.60;99.90;;;;;;4974484;28;20182;-71
2022/08/13 02:51:23;;;;;;;2.97;0.50;;;18.10;99.90;;;;;;4973783;28;20237;-71
2022/08/13 02:53:52;;;;;;;0.63;0.50;;;19.10;99.90;;;;;;4974774;28;20183;-73
2022/08/13 02:56:20;;;;;;;0.83;0.30;;;20.00;99.90;;;;;;4974957;28;20181;-72
2022/08/13 02:58:49;;;;;;;0.83;0.30;;;20.00;99.90;;;;;;4974541;28;20186;-72
2022/08/13 03:01:17;;;;;;;0.97;0.50;;;20.30;99.90;;;;;;4974913;28;20555;-72
2022/08/13 03:03:44;;;;;;;4.23;0.50;;;20.10;99.90;;;;;;4974544;28;20183;-72
2022/08/13 03:06:12;;;;;;;1.47;0.33;;;19.90;99.90;;;;;;4974654;28;20658;-73
2022/08/13 03:08:40;;;;;;;0.20;0.20;;;20.10;99.90;;;;;;4974180;28;20198;-72
2022/08/13 03:11:09;;;;;;;1.27;0.30;;;20.20;99.90;;;;;;4974565;28;20219;-71
2022/08/13 03:13:38;;;;;;;0.30;0.30;;;20.10;99.90;;;;;;4974574;28;20173;-71
2022/08/13 03:16:07;;;;;;;0.57;0.30;;;19.60;99.90;;;;;;4974244;28;20191;-73
2022/08/13 03:18:36;;;;;;;0.50;0.40;;;19.80;99.90;;;;;;4973963;28;20223;-73
2022/08/13 03:21:03;;;;;;;0.30;0.30;;;20.10;99.90;;;;;;4974128;28;20648;-73
2022/08/13 03:23:33;;;;;;;0.67;0.30;;;20.00;99.90;;;;;;4974201;28;20183;-72
2022/08/13 03:26:00;;;;;;;0.60;0.43;;;19.50;99.90;;;;;;4974306;28;20187;-72
2022/08/13 03:28:28;;;;;;;1.60;0.40;;;19.60;99.90;;;;;;4974123;28;20197;-72
2022/08/13 03:30:56;;;;;;;0.40;0.40;;;19.20;99.90;;;;;;4974248;28;20221;-71
2022/08/13 03:33:27;;;;;;;0.40;0.40;;;19.50;99.90;;;;;;4956766;28;20613;-72
2022/08/13 03:35:55;;;;;;;0.40;0.40;;;20.00;99.90;;;;;;4974090;28;20604;-73
2022/08/13 03:38:23;;;;;;;0.20;0.20;;;20.10;99.90;;;;;;4973670;28;20283;-72
2022/08/13 03:41:11;;;;;;;1.13;0.40;;;20.20;99.90;;;;;;4973867;28;20258;-72
2022/08/13 03:43:45;;;;;;;0.30;0.30;;;20.90;99.90;;;;;;4973867;28;20270;-72
2022/08/13 03:46:16;;;;;;;0.53;0.43;;;21.40;99.90;;;;;;4973668;28;20183;-72
2022/08/13 03:48:47;;;;;;;0.30;0.30;;;21.70;99.90;;;;;;4973470;28;20270;-72
2022/08/13 03:51:17;;;;;;;0.37;0.37;;;21.70;99.90;;;;;;4973721;28;20657;-72
2022/08/13 03:53:45;;;;;;;0.40;0.30;;;21.60;99.90;;;;;;4973463;28;20218;-72
2022/08/13 03:56:15;;;;;;;0.43;0.30;;;21.50;99.90;;;;;;4973652;28;20212;-71
2022/08/13 03:58:44;;;;;;;0.30;0.30;;;21.40;99.90;;;;;;4973038;28;20194;-71
2022/08/13 04:01:17;;;;;;;0.23;0.23;;;21.40;99.90;;;;;;4973537;28;20187;-73
2022/08/13 04:03:46;;;;;;;0.37;0.37;;;21.30;99.90;;;;;;4955936;28;20597;-73
2022/08/13 04:06:20;;;;;;;1.20;0.30;;;21.30;99.90;;;;;;4973164;28;20285;-72
2022/08/13 04:08:49;;;;;;;1.00;0.40;;;21.50;99.90;;;;;;4972947;28;20189;-72
2022/08/13 04:11:21;;;;;;;1.67;0.40;;;21.40;99.90;;;;;;4973430;28;20213;-72
2022/08/13 04:13:49;;;;;;;0.60;0.40;;;21.40;99.90;;;;;;4974768;28;20175;-72
2022/08/13 04:16:23;;;;;;;0.40;0.40;;;21.10;99.90;;;;;;4974701;28;20179;-72
2022/08/13 04:18:51;;;;;;;1.30;0.60;;;20.70;99.90;;;;;;4974121;28;20305;-72
2022/08/13 04:21:28;;;;;;;0.30;0.30;;;20.70;99.90;;;;;;4957139;28;20595;-72
2022/08/13 04:23:57;;;;;;;2.43;0.40;;;20.70;99.90;;;;;;4974665;28;20175;-71
2022/08/13 04:26:29;;;;;;;0.30;0.30;;;20.80;99.90;;;;;;4957024;28;20183;-72
2022/08/13 04:28:57;;;;;;;1.40;0.43;;;21.00;99.90;;;;;;4974001;28;20175;-72
2022/08/13 04:31:26;;;;;;;1.40;0.37;;;20.40;99.90;;;;;;4956053;28;20295;-71
2022/08/13 04:33:54;;;;;;;0.87;0.30;;;20.20;99.90;;;;;;4974367;28;20512;-71
2022/08/13 04:36:22;;;;;;;1.23;0.40;;;20.40;99.90;;;;;;4974615;28;20179;-72
2022/08/13 04:38:51;;;;;;;1.90;0.40;;;20.80;99.90;;;;;;4974059;28;20185;-73
2022/08/13 04:41:19;;;;;;;0.53;0.30;;;21.50;99.90;;;;;;4974497;28;20183;-72
2022/08/13 04:43:47;;;;;;;0.20;0.20;;;21.50;99.90;;;;;;4957300;28;20581;-72
2022/08/13 04:46:14;;;;;;;0.60;0.40;;;21.20;99.90;;;;;;4974132;28;20246;-71
2022/08/13 04:48:42;;;;;;;0.80;0.47;;;20.80;99.90;;;;;;4956669;28;20246;-71
2022/08/13 04:51:10;;;;;;;2.67;0.33;;;20.70;99.90;;;;;;4974090;28;20273;-72
2022/08/13 04:53:40;;;;;;;0.53;0.40;;;20.50;99.90;;;;;;4957262;28;20284;-71
2022/08/13 04:56:09;;;;;;;1.90;0.30;;;20.20;99.90;;;;;;4974531;28;20187;-72
2022/08/13 04:58:37;;;;;;;0.63;0.50;;;20.10;99.90;;;;;;4974099;28;20199;-71
2022/08/13 05:01:10;;;;;;;0.40;0.40;;;19.80;99.90;;;;;;4973981;28;20180;-71
2022/08/13 05:03:41;;;;;;;1.27;0.50;;;19.60;99.90;;;;;;4957593;28;20183;-72
2022/08/13 05:06:19;;;;;;;1.60;0.30;;;19.40;99.90;;;;;;4973973;28;20214;-73
2022/08/13 05:08:48;;;;;;;0.50;0.50;;;19.30;99.90;;;;;;4975330;28;20659;-72
2022/08/13 05:11:19;;;;;;;1.43;0.50;;;19.20;99.90;;;;;;4974970;28;20226;-72
2022/08/13 05:13:47;;;;;;;1.27;0.43;;;18.90;99.90;;;;;;4976185;28;20191;-72
2022/08/13 05:16:18;;;;;;;0.93;0.50;;;18.80;99.90;;;;;;4963975;28;20249;-71
2022/08/13 05:18:54;;;;;;;0.90;0.50;;;18.80;99.90;;;;;;4979955;28;20236;-71
2022/08/13 05:21:23;;;;;;;0.37;0.37;;;18.80;99.90;;;;;;4981489;28;20233;-71
2022/08/13 05:23:53;;;;;;;3.07;0.40;;;18.70;99.90;;;;;;4979532;28;20283;-72
2022/08/13 05:26:25;;;;;;;0.80;0.43;;;18.90;99.90;;;;;;4960924;28;20184;-72
2022/08/13 05:28:53;;;;;;;1.23;0.87;;;19.10;99.90;;;;;;4977851;28;20194;-72
2022/08/13 05:31:21;;;;;;;1.00;0.80;;;19.20;99.90;;;;;;4960003;28;20230;-72
2022/08/13 05:33:49;;;;;;;0.67;0.60;;;19.10;99.90;;;;;;4977931;28;20210;-73
2022/08/13 05:36:16;;;;;;;1.97;0.70;;;19.00;99.90;;;;;;4977250;28;20270;-72
2022/08/13 05:38:45;;;;;;;1.20;0.70;;;19.10;99.90;;;;;;4977215;28;20242;-72
2022/08/13 05:41:15;;;;;;;1.00;0.70;;;18.80;99.90;;;;;;4977364;28;20714;-71
2022/08/13 05:43:45;;;;;;;0.60;0.60;;;18.60;99.90;;;;;;4977398;28;20182;-71
2022/08/13 05:46:13;;;;;;;1.00;0.70;;;18.30;99.90;;;;;;4977359;28;20183;-72
2022/08/13 05:48:56;;;;;;;1.87;1.27;;;18.00;99.90;;;;;;4959614;28;20562;-72
2022/08/13 05:51:28;;;;;;;2.20;0.70;;;18.00;99.90;;;;;;4976714;28;20217;-72
2022/08/13 05:53:59;;;;;;;0.93;0.60;;;18.00;99.90;;;;;;4977355;28;20179;-70
2022/08/13 05:56:28;;;;;;;0.60;0.57;;;17.90;99.90;;;;;;4977335;28;20628;-71
2022/08/13 05:58:56;;;;;;;0.40;0.40;;;17.80;99.90;;;;;;4976832;28;20184;-71
2022/08/13 06:04:11;;;;;;;2.40;1.50;;;17.60;99.90;;;;;;4977462;28;20267;-72
2022/08/13 06:06:40;;;;;;;2.97;1.00;;;17.50;99.90;;;;;;4976867;28;20219;-71
2022/08/13 06:09:08;;;;;;;5.40;1.00;;;17.40;99.90;;;;;;4976493;28;20648;-71
2022/08/13 06:11:43;;;;;;;2.73;1.13;;;17.30;99.90;;;;;;4976855;28;20729;-71
2022/08/13 06:14:23;;;;;;;1.43;0.80;;;17.30;99.90;;;;;;4977117;28;20174;-72
2022/08/13 06:16:52;;;;;;;1.33;0.73;;;17.20;99.90;;;;;;4976789;28;20171;-71
2022/08/13 06:19:25;;;;;;;1.50;0.80;;;17.00;99.90;;;;;;4976487;28;20231;-72
2022/08/13 06:21:55;;;;;;;3.77;1.07;;;17.10;99.90;;;;;;4959486;28;20203;-70
2022/08/13 06:24:23;;;;;;;0.90;0.63;;;17.00;99.90;;;;;;4976747;28;20183;-71
2022/08/13 06:26:51;;;;;;;1.90;1.07;;;17.00;99.90;;;;;;4976726;28;20187;-72
2022/08/13 06:29:20;;;;;;;2.47;0.90;;;17.00;99.90;;;;;;4956758;28;20175;-72
2022/08/13 06:31:49;;;;;;;2.37;0.67;;;16.90;99.90;;;;;;4976163;28;20270;-72
2022/08/13 06:34:17;;;;;;;1.70;0.70;;;16.80;99.90;;;;;;4973468;28;20198;-72
2022/08/13 06:36:45;;;;;;;2.80;0.57;;;16.80;99.90;;;;;;4975768;28;20520;-70
2022/08/13 06:39:14;;;;;;;1.17;0.60;;;16.70;99.90;;;;;;4976177;28;20191;-71
2022/08/13 06:41:42;;;;;;;0.50;0.50;;;16.70;99.90;;;;;;4958735;28;20774;-70
2022/08/13 06:44:11;;;;;;;2.10;0.90;;;16.60;99.90;;;;;;4976353;28;20258;-71
2022/08/13 06:46:39;;;;;;;1.50;1.20;;;16.60;99.90;;;;;;4958839;28;20183;-72
2022/08/13 06:49:09;;;;;;;13.83;8.10;;;16.60;99.90;;;;;;4975433;28;20259;-72
2022/08/13 06:51:37;;;;;;;57.63;38.77;;;16.60;99.90;;;;;;4976102;28;20222;-71
2022/08/13 06:54:10;;;;;;;6.87;4.27;;;16.50;99.90;;;;;;4975404;28;20566;-72
2022/08/13 06:56:39;;;;;;;10.03;7.07;;;16.50;99.90;;;;;;4976163;28;20285;-71
2022/08/13 06:59:08;;;;;;;8.57;2.53;;;16.40;99.90;;;;;;4974087;28;20194;-71
2022/08/13 07:01:37;;;;;;;1.50;1.27;;;16.30;99.90;;;;;;4975458;28;20687;-71
2022/08/13 07:04:10;;;;;;;2.07;1.10;;;16.30;99.90;;;;;;4957867;28;20172;-71
2022/08/13 07:06:38;;;;;;;2.70;2.00;;;16.20;99.90;;;;;;4976248;28;20184;-72
2022/08/13 07:09:06;;;;;;;2.00;1.60;;;16.20;99.90;;;;;;4975758;28;20231;-72
2022/08/13 07:11:33;;;;;;;3.13;1.60;;;16.10;99.90;;;;;;4975816;28;20670;-71
2022/08/13 07:14:03;;;;;;;1.77;0.90;;;16.10;99.90;;;;;;4975795;28;20187;-71
2022/08/13 07:16:33;;;;;;;20.83;11.43;;;16.00;99.90;;;;;;4975974;28;20183;-71
2022/08/13 07:19:01;;;;;;;20.40;12.43;;;15.90;99.90;;;;;;4975308;28;20302;-71
2022/08/13 07:21:31;;;;;;;38.60;24.10;;;15.90;99.90;;;;;;4958211;28;20237;-71
2022/08/13 07:24:04;;;;;;;2.80;2.27;;;15.80;99.90;;;;;;4975722;28;20553;-71
2022/08/13 07:26:33;;;;;;;4.97;3.80;;;15.70;99.90;;;;;;4975784;28;20266;-74
2022/08/13 07:29:06;;;;;;;7.23;4.10;;;15.70;99.90;;;;;;4975610;28;20186;-74
2022/08/13 07:31:41;;;;;;;1.80;1.40;;;15.60;99.90;;;;;;4975277;28;20326;-71
2022/08/13 07:34:09;;;;;;;13.07;7.57;;;15.50;99.90;;;;;;4975409;28;20202;-76
2022/08/13 07:36:40;;;;;;;9.50;6.43;;;15.40;99.90;;;;;;4974754;28;20638;-71
2022/08/13 07:39:12;;;;;;;5.90;3.80;;;15.30;99.90;;;;;;4975281;28;20576;-74
2022/08/13 07:41:43;;;;;;;3.63;1.10;;;15.20;99.90;;;;;;4975223;28;20184;-71
2022/08/13 07:44:17;;;;;;;1.60;1.10;;;15.10;99.90;;;;;;4975707;28;20706;-70
2022/08/13 07:46:46;;;;;;;0.80;0.67;;;15.10;99.90;;;;;;4975274;28;20171;-71
2022/08/13 07:49:14;;;;;;;1.43;0.53;;;15.00;99.90;;;;;;4975309;28;20262;-70
2022/08/13 07:51:46;;;;;;;0.77;0.57;;;14.90;99.90;;;;;;4974899;28;20260;-71
2022/08/13 07:54:15;;;;;;;1.10;0.67;;;14.80;99.90;;;;;;4975171;28;20210;-70
2022/08/13 07:56:47;;;;;;;1.27;0.80;;;14.80;99.90;;;;;;4974879;28;20191;-72
2022/08/13 07:59:19;;;;;;;1.53;0.97;;;14.80;99.90;;;;;;4974751;28;20181;-71
2022/08/13 08:01:49;;;;;;;2.50;1.30;;;14.70;99.90;;;;;;4975071;28;20589;-71
2022/08/13 08:04:18;;;;;;;2.53;1.73;;;14.70;99.90;;;;;;4974955;28;20206;-70
2022/08/13 08:06:47;;;;;;;1.77;1.10;;;14.60;99.90;;;;;;4974978;28;20278;-71
2022/08/13 08:09:20;;;;;;;2.40;1.70;;;14.50;99.90;;;;;;4974889;28;20652;-71
2022/08/13 08:14:37;;;;;;;2.80;1.00;;;14.40;99.90;;;;;;4975438;28;20225;-77
2022/08/13 08:17:11;;;;;;;1.10;1.00;;;14.40;99.90;;;;;;4974593;28;20189;-76
2022/08/13 08:19:41;;;;;;;3.93;0.93;;;14.30;99.90;;;;;;4974648;28;20195;-71
2022/08/13 08:22:13;;;;;;;1.17;1.03;;;14.30;99.90;;;;;;4974606;28;20183;-71
2022/08/13 08:24:42;;;;;;;3.37;1.80;;;14.20;99.90;;;;;;4974531;28;20175;-70
2022/08/13 08:27:10;;;;;;;3.43;1.47;;;14.10;99.90;;;;;;4975061;28;20190;-70
2022/08/13 08:29:40;;;;;;;1.93;1.40;;;14.00;99.90;;;;;;4974655;28;20617;-71
2022/08/13 08:32:08;;;;;;;2.87;1.33;;;13.90;99.90;;;;;;4974382;28;20193;-70
2022/08/13 08:34:38;;;;;;;3.43;2.00;;;13.80;99.90;;;;;;4974487;28;20178;-71
2022/08/13 08:37:06;;;;;;;2.63;2.10;;;13.70;99.90;;;;;;4974447;28;20240;-71
2022/08/13 08:42:38;;;;;;;4.77;3.00;;;13.50;99.90;;;;;;4974370;28;20190;-71
2022/08/13 08:45:14;;;;;;;6.30;2.70;;;13.40;99.90;;;;;;4974292;28;20550;-70
2022/08/13 08:47:42;;;;;;;5.57;2.90;;;13.30;99.90;;;;;;4956850;28;20568;-72
2022/08/13 08:50:11;;;;;;;5.97;2.40;;;13.20;99.90;;;;;;4974147;28;20240;-70
2022/08/13 08:55:26;;;;;;;3.20;2.20;;;12.80;99.90;;;;;;4974457;28;20220;-70
2022/08/13 08:57:54;;;;;;;2.97;1.87;;;12.70;99.90;;;;;;4974006;28;20205;-70
2022/08/13 09:00:23;;;;;;;4.57;2.57;;;12.50;99.90;;;;;;4974327;28;20237;-71
2022/08/13 09:02:52;;;;;;;4.03;2.33;;;12.40;99.90;;;;;;4956440;28;20185;-71
2022/08/13 09:05:21;;;;;;;3.07;1.80;;;12.30;99.90;;;;;;4974408;28;20181;-70
2022/08/13 09:07:50;;;;;;;5.13;2.40;;;12.10;99.90;;;;;;4974011;28;20244;-71
2022/08/13 09:10:20;;;;;;;4.43;2.43;;;12.00;99.90;;;;;;4974053;28;20596;-71
2022/08/13 09:12:50;;;;;;;4.20;1.97;;;12.00;99.90;;;;;;4974115;28;20264;-71
2022/08/13 09:15:24;;;;;;;5.00;3.03;;;11.80;99.90;;;;;;4974661;28;20634;-68
2022/08/13 09:17:53;;;;;;;9.00;4.43;;;11.70;99.90;;;;;;4974193;28;20242;-70
2022/08/13 09:20:26;;;;;;;6.57;2.67;;;11.60;99.90;;;;;;4974086;28;20263;-71
2022/08/13 09:23:12;;;;;;;5.97;2.43;;;11.60;99.90;;;;;;4974063;28;20184;-71
2022/08/13 09:25:44;;;;;;;4.50;2.13;;;11.40;99.90;;;;;;4973955;28;20177;-70
2022/08/13 09:28:15;;;;;;;4.53;2.17;;;11.40;99.90;;;;;;4974166;28;20228;-70
2022/08/13 09:30:45;;;;;;;6.53;2.37;;;11.30;99.90;;;;;;4974008;28;20711;-71
2022/08/13 09:33:13;;;;;;;4.40;2.30;;;11.20;99.90;;;;;;4975049;28;20186;-71
2022/08/13 09:35:42;;;;;;;4.20;2.40;;;11.20;99.90;;;;;;4974016;28;20176;-70
2022/08/13 09:38:10;;;;;;;5.97;2.27;;;11.10;99.90;;;;;;4973662;28;20182;-70
2022/08/13 09:40:45;;;;;;;4.83;2.90;;;11.10;99.90;;;;;;4973769;28;20537;-73
2022/08/13 09:43:37;;;;;;;4.93;2.43;;;11.10;99.90;;;;;;4973715;28;20188;-71
2022/08/13 09:46:05;;;;;;;5.23;2.67;;;11.00;99.90;;;;;;4965403;28;20207;-71
2022/08/13 09:48:33;;;;;;;6.53;2.97;;;11.00;99.90;;;;;;4974293;28;20227;-70
2022/08/13 09:51:04;;;;;;;7.53;2.90;;;11.00;99.90;;;;;;4956750;28;20233;-71
2022/08/13 09:53:32;;;;;;;7.20;2.50;;;10.90;99.90;;;;;;4974510;28;20498;-70
2022/08/13 09:56:00;;;;;;;6.77;3.03;;;10.90;99.90;;;;;;4973682;28;20197;-71
2022/08/13 09:58:28;;;;;;;5.70;3.60;;;10.80;99.90;;;;;;4973696;28;20602;-69
2022/08/13 10:00:56;;;;;;;5.73;3.67;;;10.80;99.90;;;;;;4975919;28;20179;-71
2022/08/13 10:03:24;;;;;;;9.20;4.10;;;10.70;99.90;;;;;;4977350;28;20179;-70
2022/08/13 10:05:52;;;;;;;12.10;4.37;;;10.70;99.90;;;;;;4959883;28;20278;-76
2022/08/13 10:08:20;;;;;;;7.27;4.00;;;10.60;99.90;;;;;;4977115;28;20270;-70
2022/08/13 10:10:48;;;;;;;7.97;4.47;;;10.60;99.90;;;;;;4977041;28;20223;-70
2022/08/13 10:13:15;;;;;;;7.20;4.10;;;10.60;99.90;;;;;;4977164;28;20220;-71
2022/08/13 10:15:43;;;;;;;7.40;4.10;;;10.50;99.90;;;;;;4977089;28;20631;-76
2022/08/13 10:18:11;;;;;;;7.30;5.60;;;10.50;99.90;;;;;;4976631;28;20233;-72
2022/08/13 10:20:45;;;;;;;9.67;5.40;;;10.50;99.90;;;;;;4977098;28;20272;-71
2022/08/13 10:23:15;;;;;;;8.63;5.67;;;10.40;99.90;;;;;;4977056;28;20183;-71
2022/08/13 10:25:46;;;;;;;9.23;5.70;;;10.40;99.90;;;;;;4976937;28;20198;-71
2022/08/13 10:28:24;;;;;;;9.20;5.87;;;10.40;99.90;;;;;;4976668;28;20219;-71
2022/08/13 10:30:54;;;;;;;9.17;5.27;;;10.40;99.90;;;;;;4976595;28;20222;-72
2022/08/13 10:33:23;;;;;;;10.50;5.93;;;10.40;99.90;;;;;;4976764;28;20181;-71
2022/08/13 10:35:55;;;;;;;9.20;6.20;;;10.30;99.90;;;;;;4976812;28;20218;-71
2022/08/13 10:38:27;;;;;;;9.17;5.87;;;10.30;99.90;;;;;;4976622;28;20183;-72
2022/08/13 10:40:56;;;;;;;9.47;5.77;;;10.30;99.90;;;;;;4976708;28;20186;-75
2022/08/13 10:43:26;;;;;;;10.77;5.60;;;10.30;99.90;;;;;;4959140;28;20180;-71
2022/08/13 10:45:59;;;;;;;10.60;5.43;;;10.20;99.90;;;;;;4977118;28;20540;-70
2022/08/13 10:48:28;;;;;;;8.97;5.57;;;10.10;99.90;;;;;;4976391;28;20262;-70
2022/08/13 10:50:56;;;;;;;10.27;5.90;;;10.10;99.90;;;;;;4976186;28;20262;-71
2022/08/13 10:56:11;;;;;;;8.93;5.10;;;10.00;99.90;;;;;;4976641;28;20222;-75
2022/08/13 10:58:40;;;;;;;10.07;5.47;;;10.10;99.90;;;;;;4976095;28;20177;-71
2022/08/13 11:01:08;;;;;;;8.77;4.97;;;10.00;99.90;;;;;;4976081;28;20203;-69
2022/08/13 11:03:36;;;;;;;9.03;4.40;;;10.10;99.90;;;;;;4976201;28;20187;-70
2022/08/13 11:06:06;;;;;;;6.70;3.87;;;10.10;99.90;;;;;;4976045;28;20628;-71
2022/08/13 11:08:39;;;;;;;6.93;3.57;;;10.20;99.90;;;;;;4976258;28;20215;-71
2022/08/13 11:11:09;;;;;;;4.40;2.80;;;10.20;99.90;;;;;;4975628;28;20225;-76
2022/08/13 11:13:38;;;;;;;9.67;3.70;;;10.20;99.90;;;;;;4975563;28;20661;-71
2022/08/13 11:16:56;;;;;;;5.90;3.40;;;10.30;99.90;;;;;;4975867;28;20180;-70
2022/08/13 11:18:55;;;;;;;6.47;3.37;;;10.20;99.90;;;;;;4975355;28;20633;-72
2022/08/13 11:21:26;;;;;;;6.27;3.47;;;10.20;99.90;;;;;;4975684;28;20199;-70
2022/08/13 11:23:54;;;;;;;8.60;3.13;;;10.10;99.90;;;;;;4975838;28;20219;-69
2022/08/13 11:26:22;;;;;;;11.27;3.27;;;10.10;99.90;;;;;;4975872;28;20578;-70
2022/08/13 11:28:49;;;;;;;4.57;3.13;;;10.10;99.90;;;;;;4975741;28;20551;-70
2022/08/13 11:31:17;;;;;;;4.40;2.73;;;10.00;99.90;;;;;;4975549;28;20218;-71
2022/08/13 11:33:45;;;;;;;6.73;3.47;;;10.00;99.90;;;;;;4975704;28;20203;-72
2022/08/13 11:36:13;;;;;;;9.47;4.23;;;10.00;99.90;;;;;;4975575;28;20208;-70
2022/08/13 11:38:41;;;;;;;7.60;3.57;;;10.00;99.90;;;;;;4975591;28;20231;-75
2022/08/13 11:41:08;;;;;;;8.30;3.40;;;10.00;99.90;;;;;;4975324;28;20210;-71
2022/08/13 11:43:36;;;;;;;5.53;3.53;;;10.10;99.90;;;;;;4975471;28;20182;-75
2022/08/13 11:46:04;;;;;;;6.33;3.33;;;10.10;99.90;;;;;;4975643;28;20179;-71
2022/08/13 11:48:32;;;;;;;4.50;2.83;;;10.10;99.90;;;;;;4975513;28;20176;-72
2022/08/13 11:51:00;;;;;;;4.60;2.83;;;10.10;99.90;;;;;;4975454;28;20204;-70
2022/08/13 11:53:28;;;;;;;5.50;2.70;;;10.10;99.90;;;;;;4975329;28;20186;-69
2022/08/13 11:55:56;;;;;;;6.50;2.53;;;10.10;99.90;;;;;;4975647;28;20183;-71
2022/08/13 11:58:24;;;;;;;7.30;3.03;;;10.00;99.90;;;;;;4975577;28;20177;-72
2022/08/13 12:00:54;;;;;;;6.97;2.90;;;10.10;99.90;;;;;;4974786;28;20272;-69
2022/08/13 12:03:22;;;;;;;5.30;2.63;;;10.20;99.90;;;;;;4957697;28;20551;-69
2022/08/13 12:05:50;;;;;;;5.40;3.23;;;10.30;99.90;;;;;;4974859;28;20214;-69
2022/08/13 12:08:19;;;;;;;4.23;2.73;;;10.40;99.90;;;;;;4975530;28;20190;-69
2022/08/13 12:10:47;;;;;;;3.67;2.80;;;10.40;99.90;;;;;;4974539;28;20218;-71
2022/08/13 12:13:15;;;;;;;6.43;3.00;;;10.40;99.90;;;;;;4974436;28;20542;-70
2022/08/13 12:15:43;;;;;;;5.97;2.90;;;10.40;99.90;;;;;;4974906;28;20197;-68
2022/08/13 12:18:16;;;;;;;3.87;2.93;;;10.50;99.90;;;;;;4957204;28;20591;-68
2022/08/13 12:20:44;;;;;;;5.80;2.93;;;10.50;99.90;;;;;;4974435;28;20198;-71
2022/08/13 12:23:12;;;;;;;4.60;2.50;;;10.60;99.90;;;;;;4974226;28;20275;-69
2022/08/13 12:25:40;;;;;;;5.23;3.00;;;10.60;99.90;;;;;;4974786;28;20272;-71
2022/08/13 12:28:12;;;;;;;5.83;3.00;;;10.60;99.90;;;;;;4957555;28;20234;-68
2022/08/13 12:30:42;;;;;;;3.07;2.77;;;10.60;99.90;;;;;;4974313;28;20215;-69
2022/08/13 12:33:12;;;;;;;3.97;2.90;;;10.60;99.90;;;;;;4974875;28;20261;-69
2022/08/13 12:35:43;;;;;;;6.73;3.37;;;10.50;99.90;;;;;;4974571;28;20542;-70
2022/08/13 12:38:16;;;;;;;5.23;3.43;;;10.50;99.90;;;;;;4974267;28;20198;-70
2022/08/13 12:40:46;;;;;;;4.70;3.47;;;10.50;99.90;;;;;;4974238;28;20226;-69
2022/08/13 12:43:16;;;;;;;7.40;3.03;;;10.40;99.90;;;;;;4974672;28;20654;-68
2022/08/13 12:45:44;;;;;;;7.37;3.37;;;10.40;99.90;;;;;;4974375;28;20192;-69
2022/08/13 12:48:15;;;;;;;4.43;3.17;;;10.40;99.90;;;;;;4974825;28;20631;-71
2022/08/13 12:50:46;;;;;;;5.90;3.60;;;10.50;99.90;;;;;;4974034;28;20237;-69
2022/08/13 12:53:15;;;;;;;8.13;3.70;;;10.50;99.90;;;;;;4974283;28;20186;-70
2022/08/13 12:55:45;;;;;;;6.00;3.43;;;10.50;99.90;;;;;;4974515;28;20313;-69
2022/08/13 12:58:21;;;;;;;5.57;4.10;;;10.50;99.90;;;;;;4973997;28;20274;-69
2022/08/13 13:00:57;;;;;;;8.70;4.40;;;10.40;99.90;;;;;;4973976;28;20179;-69
2022/08/13 13:03:28;;;;;;;6.10;3.80;;;10.40;99.90;;;;;;4957701;28;20200;-70
2022/08/13 13:05:56;;;;;;;9.33;4.17;;;10.40;99.90;;;;;;4974462;28;20202;-70
2022/08/13 13:08:30;;;;;;;8.43;4.60;;;10.40;99.90;;;;;;4973983;28;20677;-69
2022/08/13 13:11:11;;;;;;;7.93;5.50;;;10.40;99.90;;;;;;4973827;28;20222;-70
2022/08/13 13:13:44;;;;;;;6.03;4.43;;;10.50;99.90;;;;;;4974216;28;20270;-71
2022/08/13 13:16:12;;;;;;;7.87;4.63;;;10.50;99.90;;;;;;4974115;28;20179;-71
2022/08/13 13:18:40;;;;;;;8.03;4.37;;;10.50;99.90;;;;;;4952371;29;20238;-70
2022/08/13 13:21:08;;;;;;;6.13;4.17;;;10.50;99.90;;;;;;4925913;29;20188;-69
2022/08/13 13:23:36;;;;;;;6.97;5.80;;;10.50;99.90;;;;;;4953439;28;20262;-71
2022/08/13 13:26:04;;;;;;;7.80;5.97;;;10.50;99.90;;;;;;4954940;28;20217;-69